sensor_id;sensor_type;location;lat;lon;timestamp;pressure;altitude;pressure_sealevel;temperature;humidity
62847;BME280;49477;35.676;139.586;2023-04-03T00:02:11;101850.22;;;20.62;33.92
62847;BME280;49477;35.676;139.586;2023-04-03T00:04:41;101855.42;;;20.94;33.88
62847;BME280;49477;35.676;139.586;2023-04-03T00:07:10;101849.48;;;20.70;33.76
62847;BME280;49477;35.676;139.586;2023-04-03T00:09:40;101844.49;;;20.95;33.17
62847;BME280;49477;35.676;139.586;2023-04-03T00:12:09;101852.28;;;21.00;33.41
62847;BME280;49477;35.676;139.586;2023-04-03T00:14:39;101852.42;;;20.76;33.42
62847;BME280;49477;35.676;139.586;2023-04-03T00:17:09;101848.92;;;20.81;33.32
62847;BME280;49477;35.676;139.586;2023-04-03T00:19:38;101846.00;;;20.82;32.54
62847;BME280;49477;35.676;139.586;2023-04-03T00:22:08;101850.53;;;21.19;32.97
62847;BME280;49477;35.676;139.586;2023-04-03T00:24:37;101847.30;;;20.94;32.88
62847;BME280;49477;35.676;139.586;2023-04-03T00:27:07;101850.63;;;21.22;32.93
62847;BME280;49477;35.676;139.586;2023-04-03T00:29:36;101848.43;;;21.26;32.76
62847;BME280;49477;35.676;139.586;2023-04-03T00:32:06;101849.42;;;20.98;32.28
62847;BME280;49477;35.676;139.586;2023-04-03T00:34:35;101849.80;;;21.05;32.63
62847;BME280;49477;35.676;139.586;2023-04-03T00:37:05;101852.61;;;21.12;32.62
62847;BME280;49477;35.676;139.586;2023-04-03T00:39:34;101852.53;;;20.92;32.43
62847;BME280;49477;35.676;139.586;2023-04-03T00:42:04;101848.75;;;21.40;32.28
62847;BME280;49477;35.676;139.586;2023-04-03T00:45:41;101845.31;;;21.19;32.37
62847;BME280;49477;35.676;139.586;2023-04-03T00:48:15;101846.84;;;21.08;32.25
62847;BME280;49477;35.676;139.586;2023-04-03T00:50:46;101839.77;;;21.36;32.27
62847;BME280;49477;35.676;139.586;2023-04-03T00:53:19;101839.10;;;21.36;32.32
62847;BME280;49477;35.676;139.586;2023-04-03T00:55:52;101837.63;;;21.45;32.25
62847;BME280;49477;35.676;139.586;2023-04-03T00:58:28;101836.36;;;21.72;32.25
62847;BME280;49477;35.676;139.586;2023-04-03T01:01:05;101836.89;;;21.51;32.11
62847;BME280;49477;35.676;139.586;2023-04-03T01:03:35;101832.12;;;21.61;31.99
62847;BME280;49477;35.676;139.586;2023-04-03T01:06:04;101833.01;;;21.70;31.71
62847;BME280;49477;35.676;139.586;2023-04-03T01:08:35;101827.25;;;21.50;31.43
62847;BME280;49477;35.676;139.586;2023-04-03T01:11:04;101830.58;;;21.82;31.61
62847;BME280;49477;35.676;139.586;2023-04-03T01:13:34;101828.61;;;21.61;31.07
62847;BME280;49477;35.676;139.586;2023-04-03T01:16:04;101831.02;;;21.44;30.79
62847;BME280;49477;35.676;139.586;2023-04-03T01:18:36;101832.01;;;21.95;31.07
62847;BME280;49477;35.676;139.586;2023-04-03T01:21:23;101829.36;;;21.54;30.94
62847;BME280;49477;35.676;139.586;2023-04-03T01:24:06;101824.17;;;22.08;31.01
62847;BME280;49477;35.676;139.586;2023-04-03T01:26:40;101824.11;;;22.15;31.00
62847;BME280;49477;35.676;139.586;2023-04-03T01:29:10;101823.82;;;21.70;29.71
62847;BME280;49477;35.676;139.586;2023-04-03T01:31:56;101823.30;;;21.78;30.64
62847;BME280;49477;35.676;139.586;2023-04-03T01:34:28;101823.10;;;21.84;30.53
62847;BME280;49477;35.676;139.586;2023-04-03T01:36:57;101815.63;;;21.88;30.13
62847;BME280;49477;35.676;139.586;2023-04-03T01:39:26;101813.99;;;21.88;29.60
62847;BME280;49477;35.676;139.586;2023-04-03T01:41:56;101814.15;;;21.90;28.99
62847;BME280;49477;35.676;139.586;2023-04-03T01:44:25;101820.10;;;21.95;30.23
62847;BME280;49477;35.676;139.586;2023-04-03T01:46:55;101822.04;;;21.89;30.36
62847;BME280;49477;35.676;139.586;2023-04-03T01:49:24;101815.30;;;22.01;30.04
62847;BME280;49477;35.676;139.586;2023-04-03T01:51:54;101807.78;;;22.05;30.17
62847;BME280;49477;35.676;139.586;2023-04-03T01:54:23;101806.60;;;22.27;29.95
62847;BME280;49477;35.676;139.586;2023-04-03T01:56:53;101803.97;;;22.47;30.01
62847;BME280;49477;35.676;139.586;2023-04-03T01:59:22;101803.85;;;22.42;29.90
62847;BME280;49477;35.676;139.586;2023-04-03T02:01:52;101798.51;;;22.03;29.97
62847;BME280;49477;35.676;139.586;2023-04-03T02:04:21;101796.12;;;22.07;29.95
62847;BME280;49477;35.676;139.586;2023-04-03T02:06:50;101792.17;;;22.09;29.93
62847;BME280;49477;35.676;139.586;2023-04-03T02:09:19;101782.56;;;22.12;29.84
62847;BME280;49477;35.676;139.586;2023-04-03T02:11:49;101787.78;;;21.82;29.88
62847;BME280;49477;35.676;139.586;2023-04-03T02:14:18;101788.07;;;22.12;29.72
62847;BME280;49477;35.676;139.586;2023-04-03T02:16:47;101788.45;;;22.17;29.74
62847;BME280;49477;35.676;139.586;2023-04-03T02:19:17;101787.79;;;22.30;29.54
62847;BME280;49477;35.676;139.586;2023-04-03T02:21:46;101789.84;;;22.36;29.30
62847;BME280;49477;35.676;139.586;2023-04-03T02:24:16;101778.59;;;22.46;29.19
62847;BME280;49477;35.676;139.586;2023-04-03T02:26:45;101775.35;;;22.42;29.20
62847;BME280;49477;35.676;139.586;2023-04-03T02:29:14;101774.34;;;22.34;29.23
62847;BME280;49477;35.676;139.586;2023-04-03T02:31:44;101769.33;;;22.35;29.09
62847;BME280;49477;35.676;139.586;2023-04-03T02:34:14;101766.38;;;22.34;29.15
62847;BME280;49477;35.676;139.586;2023-04-03T02:36:43;101761.53;;;22.34;29.18
62847;BME280;49477;35.676;139.586;2023-04-03T02:39:12;101766.52;;;22.39;29.11
62847;BME280;49477;35.676;139.586;2023-04-03T02:41:41;101754.89;;;22.44;28.84
62847;BME280;49477;35.676;139.586;2023-04-03T02:44:12;101741.26;;;22.45;28.76
62847;BME280;49477;35.676;139.586;2023-04-03T02:46:41;101745.90;;;22.47;28.61
62847;BME280;49477;35.676;139.586;2023-04-03T02:49:10;101741.07;;;22.57;28.83
62847;BME280;49477;35.676;139.586;2023-04-03T02:51:40;101737.58;;;22.59;28.69
62847;BME280;49477;35.676;139.586;2023-04-03T02:54:09;101731.13;;;22.61;28.88
62847;BME280;49477;35.676;139.586;2023-04-03T02:56:38;101731.55;;;22.61;28.88
62847;BME280;49477;35.676;139.586;2023-04-03T02:59:08;101738.33;;;22.61;28.43
62847;BME280;49477;35.676;139.586;2023-04-03T03:01:37;101739.02;;;22.60;28.60
62847;BME280;49477;35.676;139.586;2023-04-03T03:04:07;101740.59;;;22.38;28.16
62847;BME280;49477;35.676;139.586;2023-04-03T03:06:36;101739.08;;;22.74;28.08
62847;BME280;49477;35.676;139.586;2023-04-03T03:09:06;101732.78;;;22.52;28.21
62847;BME280;49477;35.676;139.586;2023-04-03T03:11:35;101721.21;;;22.55;28.44
62847;BME280;49477;35.676;139.586;2023-04-03T03:14:05;101719.68;;;22.76;28.19
62847;BME280;49477;35.676;139.586;2023-04-03T03:16:34;101717.09;;;22.77;28.26
62847;BME280;49477;35.676;139.586;2023-04-03T03:19:04;101714.49;;;22.81;28.34
62847;BME280;49477;35.676;139.586;2023-04-03T03:21:33;101702.27;;;22.53;28.51
62847;BME280;49477;35.676;139.586;2023-04-03T03:24:03;101700.23;;;22.52;28.60
62847;BME280;49477;35.676;139.586;2023-04-03T03:26:32;101692.88;;;22.54;28.60
62847;BME280;49477;35.676;139.586;2023-04-03T03:29:01;101695.07;;;22.54;28.43
62847;BME280;49477;35.676;139.586;2023-04-03T03:31:31;101692.40;;;22.56;28.45
62847;BME280;49477;35.676;139.586;2023-04-03T03:34:00;101691.41;;;22.78;28.62
62847;BME280;49477;35.676;139.586;2023-04-03T03:36:30;101687.68;;;22.86;28.57
62847;BME280;49477;35.676;139.586;2023-04-03T03:38:59;101682.33;;;22.84;28.57
62847;BME280;49477;35.676;139.586;2023-04-03T03:41:29;101673.91;;;22.64;28.56
62847;BME280;49477;35.676;139.586;2023-04-03T03:43:58;101671.05;;;22.60;28.55
62847;BME280;49477;35.676;139.586;2023-04-03T03:46:28;101671.93;;;22.86;28.58
62847;BME280;49477;35.676;139.586;2023-04-03T03:48:57;101666.11;;;22.87;28.51
62847;BME280;49477;35.676;139.586;2023-04-03T03:51:27;101666.85;;;22.39;28.44
62847;BME280;49477;35.676;139.586;2023-04-03T03:53:56;101662.76;;;22.60;28.56
62847;BME280;49477;35.676;139.586;2023-04-03T03:56:26;101653.66;;;22.93;28.54
62847;BME280;49477;35.676;139.586;2023-04-03T03:58:55;101649.57;;;22.68;28.59
62847;BME280;49477;35.676;139.586;2023-04-03T04:01:25;101649.30;;;22.70;28.62
62847;BME280;49477;35.676;139.586;2023-04-03T04:03:54;101648.06;;;23.02;28.61
62847;BME280;49477;35.676;139.586;2023-04-03T04:06:23;101642.91;;;22.99;28.69
62847;BME280;49477;35.676;139.586;2023-04-03T04:08:53;101643.78;;;22.75;28.71
62847;BME280;49477;35.676;139.586;2023-04-03T04:11:22;101636.46;;;22.78;28.71
62847;BME280;49477;35.676;139.586;2023-04-03T04:13:52;101642.13;;;22.83;28.65
62847;BME280;49477;35.676;139.586;2023-04-03T04:16:21;101630.76;;;22.66;28.60
62847;BME280;49477;35.676;139.586;2023-04-03T04:18:51;101628.91;;;23.10;28.67
62847;BME280;49477;35.676;139.586;2023-04-03T04:21:20;101631.35;;;22.89;28.70
62847;BME280;49477;35.676;139.586;2023-04-03T04:23:50;101629.97;;;23.22;28.69
62847;BME280;49477;35.676;139.586;2023-04-03T04:26:19;101624.81;;;23.16;28.81
62847;BME280;49477;35.676;139.586;2023-04-03T04:28:49;101616.24;;;22.91;28.81
62847;BME280;49477;35.676;139.586;2023-04-03T04:31:18;101612.25;;;22.99;28.70
62847;BME280;49477;35.676;139.586;2023-04-03T04:33:47;101622.58;;;22.78;28.72
62847;BME280;49477;35.676;139.586;2023-04-03T04:36:17;101619.57;;;22.83;28.70
62847;BME280;49477;35.676;139.586;2023-04-03T04:38:46;101617.73;;;23.33;28.75
62847;BME280;49477;35.676;139.586;2023-04-03T04:41:16;101616.78;;;22.87;28.80
62847;BME280;49477;35.676;139.586;2023-04-03T04:43:45;101614.48;;;23.15;28.76
62847;BME280;49477;35.676;139.586;2023-04-03T04:46:15;101612.14;;;23.14;28.74
62847;BME280;49477;35.676;139.586;2023-04-03T04:48:44;101618.08;;;23.20;28.70
62847;BME280;49477;35.676;139.586;2023-04-03T04:51:14;101619.19;;;23.24;28.70
62847;BME280;49477;35.676;139.586;2023-04-03T04:53:43;101615.81;;;23.24;28.59
62847;BME280;49477;35.676;139.586;2023-04-03T04:56:13;101615.51;;;23.27;28.54
62847;BME280;49477;35.676;139.586;2023-04-03T04:58:42;101618.22;;;23.29;28.42
62847;BME280;49477;35.676;139.586;2023-04-03T05:01:12;101610.81;;;23.09;28.43
62847;BME280;49477;35.676;139.586;2023-04-03T05:03:41;101599.24;;;23.33;28.39
62847;BME280;49477;35.676;139.586;2023-04-03T05:06:11;101600.12;;;23.14;28.28
62847;BME280;49477;35.676;139.586;2023-04-03T05:08:40;101605.08;;;23.68;28.24
62847;BME280;49477;35.676;139.586;2023-04-03T05:11:10;101607.06;;;23.20;28.24
62847;BME280;49477;35.676;139.586;2023-04-03T05:13:39;101609.29;;;23.23;28.28
62847;BME280;49477;35.676;139.586;2023-04-03T05:16:09;101609.98;;;23.27;28.18
62847;BME280;49477;35.676;139.586;2023-04-03T05:18:38;101607.82;;;23.50;28.29
62847;BME280;49477;35.676;139.586;2023-04-03T05:21:08;101602.20;;;23.32;28.28
62847;BME280;49477;35.676;139.586;2023-04-03T05:23:37;101598.07;;;23.33;28.27
62847;BME280;49477;35.676;139.586;2023-04-03T05:26:06;101592.15;;;23.33;27.93
62847;BME280;49477;35.676;139.586;2023-04-03T05:28:36;101592.54;;;23.39;28.06
62847;BME280;49477;35.676;139.586;2023-04-03T05:31:05;101586.32;;;23.35;28.16
62847;BME280;49477;35.676;139.586;2023-04-03T05:33:35;101585.07;;;23.37;28.42
62847;BME280;49477;35.676;139.586;2023-04-03T05:36:05;101585.92;;;23.35;28.62
62847;BME280;49477;35.676;139.586;2023-04-03T05:38:35;101581.33;;;23.35;28.75
62847;BME280;49477;35.676;139.586;2023-04-03T05:41:04;101578.70;;;23.34;28.81
62847;BME280;49477;35.676;139.586;2023-04-03T05:43:33;101580.51;;;23.62;28.83
62847;BME280;49477;35.676;139.586;2023-04-03T05:46:03;101574.59;;;23.20;28.95
62847;BME280;49477;35.676;139.586;2023-04-03T05:48:32;101572.13;;;23.43;28.99
62847;BME280;49477;35.676;139.586;2023-04-03T05:51:02;101573.78;;;23.45;29.06
62847;BME280;49477;35.676;139.586;2023-04-03T05:53:33;101574.71;;;23.49;29.09
62847;BME280;49477;35.676;139.586;2023-04-03T05:56:03;101572.34;;;23.48;29.16
62847;BME280;49477;35.676;139.586;2023-04-03T05:58:33;101572.72;;;23.51;29.15
62847;BME280;49477;35.676;139.586;2023-04-03T06:01:02;101577.52;;;23.54;29.12
62847;BME280;49477;35.676;139.586;2023-04-03T06:03:32;101575.53;;;23.56;29.10
62847;BME280;49477;35.676;139.586;2023-04-03T06:06:04;101570.20;;;23.60;28.89
62847;BME280;49477;35.676;139.586;2023-04-03T06:08:33;101570.85;;;23.67;28.77
62847;BME280;49477;35.676;139.586;2023-04-03T06:11:02;101569.94;;;23.47;28.70
62847;BME280;49477;35.676;139.586;2023-04-03T06:13:32;101571.06;;;23.70;28.63
62847;BME280;49477;35.676;139.586;2023-04-03T06:16:01;101574.72;;;23.51;28.64
62847;BME280;49477;35.676;139.586;2023-04-03T06:18:31;101579.35;;;23.72;28.70
62847;BME280;49477;35.676;139.586;2023-04-03T06:21:00;101584.65;;;23.52;28.77
62847;BME280;49477;35.676;139.586;2023-04-03T06:23:30;101585.97;;;23.78;28.74
62847;BME280;49477;35.676;139.586;2023-04-03T06:25:59;101586.85;;;23.80;28.70
62847;BME280;49477;35.676;139.586;2023-04-03T06:28:29;101583.16;;;23.82;28.70
62847;BME280;49477;35.676;139.586;2023-04-03T06:30:58;101589.01;;;23.81;28.79
62847;BME280;49477;35.676;139.586;2023-04-03T06:33:28;101586.09;;;23.86;28.75
62847;BME280;49477;35.676;139.586;2023-04-03T06:35:58;101587.78;;;23.87;28.64
62847;BME280;49477;35.676;139.586;2023-04-03T06:38:27;101590.72;;;23.37;28.60
62847;BME280;49477;35.676;139.586;2023-04-03T06:40:57;101588.94;;;23.87;28.61
62847;BME280;49477;35.676;139.586;2023-04-03T06:43:26;101593.95;;;23.89;28.61
62847;BME280;49477;35.676;139.586;2023-04-03T06:45:56;101598.04;;;23.90;28.62
62847;BME280;49477;35.676;139.586;2023-04-03T06:48:25;101598.97;;;23.92;28.61
62847;BME280;49477;35.676;139.586;2023-04-03T06:50:55;101599.85;;;23.72;28.56
62847;BME280;49477;35.676;139.586;2023-04-03T06:53:24;101602.84;;;23.94;28.56
62847;BME280;49477;35.676;139.586;2023-04-03T06:55:54;101610.06;;;23.93;28.66
62847;BME280;49477;35.676;139.586;2023-04-03T06:58:23;101611.40;;;23.45;28.54
62847;BME280;49477;35.676;139.586;2023-04-03T07:00:53;101612.58;;;23.99;28.52
62847;BME280;49477;35.676;139.586;2023-04-03T07:03:22;101609.33;;;23.98;28.62
62847;BME280;49477;35.676;139.586;2023-04-03T07:05:52;101610.78;;;23.76;28.79
62847;BME280;49477;35.676;139.586;2023-04-03T07:08:21;101616.71;;;24.00;28.72
62847;BME280;49477;35.676;139.586;2023-04-03T07:10:51;101620.88;;;24.00;28.72
62847;BME280;49477;35.676;139.586;2023-04-03T07:13:20;101626.20;;;23.77;28.79
62847;BME280;49477;35.676;139.586;2023-04-03T07:15:49;101626.21;;;24.00;28.82
62847;BME280;49477;35.676;139.586;2023-04-03T07:18:19;101632.47;;;23.99;28.82
62847;BME280;49477;35.676;139.586;2023-04-03T07:20:48;101642.03;;;24.01;28.78
62847;BME280;49477;35.676;139.586;2023-04-03T07:23:18;101645.91;;;23.81;28.76
62847;BME280;49477;35.676;139.586;2023-04-03T07:25:49;101646.45;;;23.80;28.81
62847;BME280;49477;35.676;139.586;2023-04-03T07:28:20;101646.32;;;24.03;28.75
62847;BME280;49477;35.676;139.586;2023-04-03T07:30:51;101651.63;;;23.84;28.70
62847;BME280;49477;35.676;139.586;2023-04-03T07:33:23;101651.66;;;23.54;28.82
62847;BME280;49477;35.676;139.586;2023-04-03T07:35:52;101650.64;;;24.04;28.79
62847;BME280;49477;35.676;139.586;2023-04-03T07:38:22;101646.62;;;23.99;28.82
62847;BME280;49477;35.676;139.586;2023-04-03T07:40:52;101653.84;;;23.77;28.26
62847;BME280;49477;35.676;139.586;2023-04-03T07:43:22;101653.60;;;23.98;28.66
62847;BME280;49477;35.676;139.586;2023-04-03T07:45:52;101659.63;;;23.71;28.78
62847;BME280;49477;35.676;139.586;2023-04-03T07:48:22;101661.99;;;23.90;28.78
62847;BME280;49477;35.676;139.586;2023-04-03T07:50:52;101663.82;;;23.91;28.81
62847;BME280;49477;35.676;139.586;2023-04-03T07:53:21;101666.69;;;23.85;28.65
62847;BME280;49477;35.676;139.586;2023-04-03T07:55:51;101670.34;;;23.80;28.81
62847;BME280;49477;35.676;139.586;2023-04-03T07:58:20;101677.40;;;23.77;28.81
62847;BME280;49477;35.676;139.586;2023-04-03T08:00:50;101682.15;;;23.75;28.77
62847;BME280;49477;35.676;139.586;2023-04-03T08:03:20;101686.10;;;23.69;28.69
62847;BME280;49477;35.676;139.586;2023-04-03T08:05:50;101686.78;;;23.86;28.50
62847;BME280;49477;35.676;139.586;2023-04-03T08:08:21;101690.10;;;23.62;28.87
62847;BME280;49477;35.676;139.586;2023-04-03T08:10:52;101695.83;;;23.57;29.00
62847;BME280;49477;35.676;139.586;2023-04-03T08:13:22;101698.48;;;23.49;28.91
62847;BME280;49477;35.676;139.586;2023-04-03T08:15:52;101701.43;;;23.48;28.84
62847;BME280;49477;35.676;139.586;2023-04-03T08:18:21;101704.48;;;23.43;28.95
62847;BME280;49477;35.676;139.586;2023-04-03T08:20:51;101702.33;;;23.39;28.78
62847;BME280;49477;35.676;139.586;2023-04-03T08:23:20;101698.02;;;23.56;28.88
62847;BME280;49477;35.676;139.586;2023-04-03T08:25:50;101702.60;;;23.48;29.01
62847;BME280;49477;35.676;139.586;2023-04-03T08:28:21;101709.33;;;23.41;29.20
62847;BME280;49477;35.676;139.586;2023-04-03T08:30:50;101711.35;;;23.36;29.15
62847;BME280;49477;35.676;139.586;2023-04-03T08:33:19;101716.98;;;23.29;29.22
62847;BME280;49477;35.676;139.586;2023-04-03T08:35:50;101718.85;;;23.26;29.27
62847;BME280;49477;35.676;139.586;2023-04-03T08:38:19;101728.43;;;22.96;29.17
62847;BME280;49477;35.676;139.586;2023-04-03T08:41:02;101730.50;;;23.19;29.16
62847;BME280;49477;35.676;139.586;2023-04-03T08:43:40;101737.08;;;23.16;29.45
62847;BME280;49477;35.676;139.586;2023-04-03T08:46:17;101743.82;;;23.09;29.44
62847;BME280;49477;35.676;139.586;2023-04-03T08:48:51;101746.06;;;23.05;29.30
62847;BME280;49477;35.676;139.586;2023-04-03T08:51:23;101750.24;;;23.00;29.46
62847;BME280;49477;35.676;139.586;2023-04-03T08:53:57;101747.49;;;23.21;29.58
62847;BME280;49477;35.676;139.586;2023-04-03T08:56:28;101749.39;;;22.88;29.66
62847;BME280;49477;35.676;139.586;2023-04-03T08:59:03;101749.68;;;22.85;29.58
62847;BME280;49477;35.676;139.586;2023-04-03T09:01:36;101754.72;;;22.81;29.47
62847;BME280;49477;35.676;139.586;2023-04-03T09:04:12;101759.30;;;22.77;29.74
62847;BME280;49477;35.676;139.586;2023-04-03T09:06:45;101763.07;;;22.74;29.67
62847;BME280;49477;35.676;139.586;2023-04-03T09:09:28;101767.84;;;22.66;29.80
62847;BME280;49477;35.676;139.586;2023-04-03T09:12:05;101775.51;;;22.65;29.92
62847;BME280;49477;35.676;139.586;2023-04-03T09:14:41;101777.44;;;22.87;29.79
62847;BME280;49477;35.676;139.586;2023-04-03T09:17:18;101778.16;;;22.56;29.88
62847;BME280;49477;35.676;139.586;2023-04-03T09:19:54;101780.86;;;22.51;29.91
62847;BME280;49477;35.676;139.586;2023-04-03T09:22:27;101784.10;;;22.43;30.12
62847;BME280;49477;35.676;139.586;2023-04-03T09:25:00;101783.10;;;22.65;30.18
62847;BME280;49477;35.676;139.586;2023-04-03T09:27:31;101782.20;;;22.61;30.35
62847;BME280;49477;35.676;139.586;2023-04-03T09:30:01;101787.25;;;22.99;30.38
62847;BME280;49477;35.676;139.586;2023-04-03T09:32:32;101793.49;;;22.50;30.42
62847;BME280;49477;35.676;139.586;2023-04-03T09:35:03;101797.89;;;22.47;30.48
62847;BME280;49477;35.676;139.586;2023-04-03T09:37:39;101804.82;;;22.44;30.54
62847;BME280;49477;35.676;139.586;2023-04-03T09:40:30;101809.64;;;22.42;30.64
62847;BME280;49477;35.676;139.586;2023-04-03T09:43:02;101817.06;;;22.36;30.59
62847;BME280;49477;35.676;139.586;2023-04-03T09:45:48;101825.38;;;22.30;30.62
62847;BME280;49477;35.676;139.586;2023-04-03T09:48:20;101833.17;;;22.26;30.78
62847;BME280;49477;35.676;139.586;2023-04-03T09:50:59;101839.72;;;22.19;30.73
62847;BME280;49477;35.676;139.586;2023-04-03T09:53:32;101844.50;;;22.17;30.88
62847;BME280;49477;35.676;139.586;2023-04-03T09:56:03;101850.45;;;22.12;30.85
62847;BME280;49477;35.676;139.586;2023-04-03T09:58:36;101848.73;;;22.10;30.80
62847;BME280;49477;35.676;139.586;2023-04-03T10:01:08;101851.69;;;22.07;30.92
62847;BME280;49477;35.676;139.586;2023-04-03T10:04:04;101857.08;;;22.04;30.90
62847;BME280;49477;35.676;139.586;2023-04-03T10:06:36;101867.27;;;22.41;30.99
62847;BME280;49477;35.676;139.586;2023-04-03T10:09:18;101875.79;;;22.39;30.97
62847;BME280;49477;35.676;139.586;2023-04-03T10:12:00;101880.83;;;21.91;30.96
62847;BME280;49477;35.676;139.586;2023-04-03T10:14:30;101891.68;;;21.88;30.95
62847;BME280;49477;35.676;139.586;2023-04-03T10:17:09;101895.31;;;21.85;30.88
62847;BME280;49477;35.676;139.586;2023-04-03T10:19:44;101895.05;;;21.94;29.48
62847;BME280;49477;35.676;139.586;2023-04-03T10:22:21;101894.17;;;21.60;28.98
62847;BME280;49477;35.676;139.586;2023-04-03T10:25:04;101896.45;;;21.98;29.10
62847;BME280;49477;35.676;139.586;2023-04-03T10:27:47;101899.13;;;21.92;29.37
62847;BME280;49477;35.676;139.586;2023-04-03T10:30:36;101903.14;;;21.86;29.52
62847;BME280;49477;35.676;139.586;2023-04-03T10:33:21;101901.24;;;21.49;29.10
62847;BME280;49477;35.676;139.586;2023-04-03T10:36:01;101912.24;;;21.19;29.21
62847;BME280;49477;35.676;139.586;2023-04-03T10:38:37;101918.84;;;21.59;29.41
62847;BME280;49477;35.676;139.586;2023-04-03T10:41:15;101924.80;;;21.83;29.71
62847;BME280;49477;35.676;139.586;2023-04-03T10:43:54;101931.72;;;21.45;29.20
62847;BME280;49477;35.676;139.586;2023-04-03T10:46:33;101935.81;;;21.33;30.19
62847;BME280;49477;35.676;139.586;2023-04-03T10:49:16;101941.60;;;21.31;30.43
62847;BME280;49477;35.676;139.586;2023-04-03T10:51:50;101944.95;;;21.54;30.35
62847;BME280;49477;35.676;139.586;2023-04-03T10:54:26;101947.64;;;21.19;30.75
62847;BME280;49477;35.676;139.586;2023-04-03T10:57:03;101947.94;;;21.47;31.12
62847;BME280;49477;35.676;139.586;2023-04-03T10:59:35;101957.71;;;21.12;30.96
62847;BME280;49477;35.676;139.586;2023-04-03T11:02:11;101967.66;;;21.13;31.33
62847;BME280;49477;35.676;139.586;2023-04-03T11:04:46;101967.17;;;21.10;31.08
62847;BME280;49477;35.676;139.586;2023-04-03T11:07:20;101969.48;;;21.31;30.92
62847;BME280;49477;35.676;139.586;2023-04-03T11:09:53;101973.54;;;21.32;31.10
62847;BME280;49477;35.676;139.586;2023-04-03T11:12:28;101976.32;;;20.97;31.53
62847;BME280;49477;35.676;139.586;2023-04-03T11:15:03;101974.33;;;21.18;31.32
62847;BME280;49477;35.676;139.586;2023-04-03T11:17:35;101975.56;;;21.19;31.40
62847;BME280;49477;35.676;139.586;2023-04-03T11:20:14;101979.16;;;20.84;31.68
62847;BME280;49477;35.676;139.586;2023-04-03T11:22:51;101980.59;;;21.39;31.60
62847;BME280;49477;35.676;139.586;2023-04-03T11:25:24;101980.18;;;21.10;31.51
62847;BME280;49477;35.676;139.586;2023-04-03T11:27:58;101987.71;;;21.09;31.84
62847;BME280;49477;35.676;139.586;2023-04-03T11:30:33;101991.31;;;20.82;32.00
62847;BME280;49477;35.676;139.586;2023-04-03T11:33:20;101992.87;;;20.77;31.55
62847;BME280;49477;35.676;139.586;2023-04-03T11:35:53;101994.68;;;21.27;31.68
62847;BME280;49477;35.676;139.586;2023-04-03T11:38:28;102002.35;;;20.68;31.09
62847;BME280;49477;35.676;139.586;2023-04-03T11:40:59;102006.91;;;21.23;31.62
62847;BME280;49477;35.676;139.586;2023-04-03T11:43:30;102010.33;;;21.23;31.69
62847;BME280;49477;35.676;139.586;2023-04-03T11:46:02;102013.36;;;20.99;31.41
62847;BME280;49477;35.676;139.586;2023-04-03T11:48:50;102013.39;;;20.98;31.61
62847;BME280;49477;35.676;139.586;2023-04-03T11:51:51;102016.74;;;20.96;31.96
62847;BME280;49477;35.676;139.586;2023-04-03T11:54:53;102016.59;;;20.91;31.86
62847;BME280;49477;35.676;139.586;2023-04-03T11:58:25;102019.57;;;20.93;32.12
62847;BME280;49477;35.676;139.586;2023-04-03T12:00:57;102024.65;;;20.91;32.38
62847;BME280;49477;35.676;139.586;2023-04-03T12:04:08;102031.82;;;20.88;32.36
62847;BME280;49477;35.676;139.586;2023-04-03T12:07:16;102030.38;;;21.10;32.48
62847;BME280;49477;35.676;139.586;2023-04-03T12:09:58;102033.85;;;20.85;32.31
62847;BME280;49477;35.676;139.586;2023-04-03T12:12:35;102035.39;;;21.03;32.48
62847;BME280;49477;35.676;139.586;2023-04-03T12:15:51;102035.44;;;20.81;32.53
62847;BME280;49477;35.676;139.586;2023-04-03T12:18:53;102038.52;;;20.83;32.74
62847;BME280;49477;35.676;139.586;2023-04-03T12:21:24;102043.99;;;20.81;32.14
62847;BME280;49477;35.676;139.586;2023-04-03T12:24:34;102049.23;;;20.99;32.16
62847;BME280;49477;35.676;139.586;2023-04-03T12:27:09;102049.27;;;20.72;32.68
62847;BME280;49477;35.676;139.586;2023-04-03T12:29:50;102054.49;;;20.91;33.29
62847;BME280;49477;35.676;139.586;2023-04-03T12:32:34;102056.87;;;20.94;33.56
62847;BME280;49477;35.676;139.586;2023-04-03T12:35:15;102054.79;;;20.75;33.50
62847;BME280;49477;35.676;139.586;2023-04-03T12:39:04;102059.36;;;20.97;33.56
62847;BME280;49477;35.676;139.586;2023-04-03T12:41:41;102065.15;;;20.76;33.63
62847;BME280;49477;35.676;139.586;2023-04-03T12:44:26;102068.98;;;21.27;33.90
62847;BME280;49477;35.676;139.586;2023-04-03T12:47:07;102070.86;;;20.98;33.89
62847;BME280;49477;35.676;139.586;2023-04-03T12:49:42;102070.67;;;20.73;33.93
62847;BME280;49477;35.676;139.586;2023-04-03T12:52:21;102074.65;;;20.70;34.25
62847;BME280;49477;35.676;139.586;2023-04-03T12:54:53;102077.74;;;20.88;34.45
62847;BME280;49477;35.676;139.586;2023-04-03T12:57:26;102077.97;;;20.41;34.44
62847;BME280;49477;35.676;139.586;2023-04-03T12:59:55;102078.61;;;20.86;34.52
62847;BME280;49477;35.676;139.586;2023-04-03T13:02:26;102083.79;;;20.81;34.78